Time;durP1;ratioP1;P1;durP2;ratioP2;P2;SDS_P1;SDS_P2;PMS_P1;PMS_P2;Temp;Humidity;BMP_temperature;BMP_pressure;BME280_temperature;BME280_humidity;BME280_pressure;Samples;Min_cycle;Max_cycle;Signal;HPM_P1;HPM_P2
2023/08/30 00:01:33;;;;;;;8.52;3.70;;;;;;;;;;5084059;28;20048;-73
2023/08/30 00:04:06;;;;;;;5.25;3.00;;;;;;;;;;5083359;28;20052;-72
2023/08/30 00:06:37;;;;;;;8.27;2.60;;;;;;;;;;5083767;28;20040;-74
2023/08/30 00:09:07;;;;;;;8.25;3.35;;;;;;;;;;5081403;28;20052;-70
2023/08/30 00:11:41;;;;;;;7.40;2.50;;;;;;;;;;5082171;28;20525;-72
2023/08/30 00:14:12;;;;;;;7.18;2.35;;;;;;;;;;5083620;28;20522;-72
2023/08/30 00:16:42;;;;;;;3.33;2.30;;;;;;;;;;5084106;28;20059;-71
2023/08/30 00:19:12;;;;;;;5.05;2.30;;;;;;;;;;5084056;28;20048;-71
2023/08/30 00:21:44;;;;;;;6.65;2.90;;;;;;;;;;5083625;28;20047;-71
2023/08/30 00:24:15;;;;;;;3.72;2.50;;;;;;;;;;5081649;28;20529;-72
2023/08/30 00:26:45;;;;;;;10.15;3.17;;;;;;;;;;5083400;28;20056;-70
2023/08/30 00:29:15;;;;;;;7.07;2.83;;;;;;;;;;5083904;28;20055;-73
2023/08/30 00:31:46;;;;;;;7.28;2.90;;;;;;;;;;5083715;28;20052;-71
2023/08/30 00:34:17;;;;;;;6.72;2.40;;;;;;;;;;5081024;28;20052;-72
2023/08/30 00:36:48;;;;;;;13.82;3.35;;;;;;;;;;5082065;28;20055;-72
2023/08/30 00:39:18;;;;;;;6.10;2.47;;;;;;;;;;5081825;28;20059;-72
2023/08/30 00:41:49;;;;;;;6.85;2.70;;;;;;;;;;5083646;28;20517;-71
2023/08/30 00:44:21;;;;;;;8.32;3.05;;;;;;;;;;5083189;28;20046;-72
2023/08/30 00:46:53;;;;;;;5.07;2.70;;;;;;;;;;5083363;28;20400;-72
2023/08/30 00:49:23;;;;;;;5.53;2.38;;;;;;;;;;5083604;28;20415;-73
2023/08/30 00:51:54;;;;;;;5.68;3.17;;;;;;;;;;5080306;28;20060;-71
2023/08/30 00:54:25;;;;;;;6.97;3.20;;;;;;;;;;5082551;28;20047;-72
2023/08/30 00:56:55;;;;;;;8.85;3.30;;;;;;;;;;5082432;28;20052;-71
2023/08/30 00:59:27;;;;;;;6.35;2.83;;;;;;;;;;5082849;28;20379;-71
2023/08/30 01:02:03;;;;;;;7.60;4.15;;;;;;;;;;5087860;28;20502;-72
2023/08/30 01:04:35;;;;;;;11.73;4.07;;;;;;;;;;5086050;28;20439;-71
2023/08/30 01:07:06;;;;;;;11.68;3.55;;;;;;;;;;5086330;28;20518;-72
2023/08/30 01:09:36;;;;;;;6.53;3.58;;;;;;;;;;5087010;28;20040;-72
2023/08/30 01:12:20;;;;;;;9.30;3.85;;;;;;;;;;5087344;28;20418;-71
2023/08/30 01:15:13;;;;;;;6.65;4.32;;;;;;;;;;5085408;28;20051;-75
2023/08/30 01:17:44;;;;;;;6.43;3.75;;;;;;;;;;5086534;28;20036;-73
2023/08/30 01:20:18;;;;;;;6.68;4.10;;;;;;;;;;5087084;28;20047;-72
2023/08/30 01:23:13;;;;;;;9.18;4.00;;;;;;;;;;5087242;28;20048;-70
2023/08/30 01:25:50;;;;;;;6.00;4.22;;;;;;;;;;5085678;28;20059;-70
2023/08/30 01:28:26;;;;;;;10.13;5.03;;;;;;;;;;5086585;28;20044;-71
2023/08/30 01:31:00;;;;;;;11.82;4.32;;;;;;;;;;5087085;28;20066;-73
2023/08/30 01:33:31;;;;;;;7.28;4.32;;;;;;;;;;5087202;28;20048;-71
2023/08/30 01:36:05;;;;;;;10.13;4.45;;;;;;;;;;5085498;28;20052;-73
2023/08/30 01:38:37;;;;;;;13.60;4.20;;;;;;;;;;5086634;28;20059;-70
2023/08/30 01:41:07;;;;;;;8.57;5.32;;;;;;;;;;5086648;28;20044;-73
2023/08/30 01:43:38;;;;;;;10.77;4.65;;;;;;;;;;5085473;28;20066;-72
2023/08/30 01:46:10;;;;;;;8.65;4.90;;;;;;;;;;5087290;28;20047;-72
2023/08/30 01:48:41;;;;;;;10.93;5.30;;;;;;;;;;5085707;28;20423;-72
2023/08/30 01:51:16;;;;;;;9.32;5.70;;;;;;;;;;5086535;28;20515;-73
2023/08/30 01:53:49;;;;;;;11.75;6.28;;;;;;;;;;5086687;28;20052;-71
2023/08/30 01:56:20;;;;;;;12.45;6.00;;;;;;;;;;5084924;28;20048;-71
2023/08/30 01:58:51;;;;;;;11.35;5.82;;;;;;;;;;5085159;28;20055;-70
2023/08/30 02:01:21;;;;;;;12.98;6.57;;;;;;;;;;5084590;28;20052;-72
2023/08/30 02:03:52;;;;;;;12.23;5.97;;;;;;;;;;5086292;28;20040;-72
2023/08/30 02:06:34;;;;;;;10.10;6.97;;;;;;;;;;5084328;28;20048;-72
2023/08/30 02:09:14;;;;;;;12.63;7.60;;;;;;;;;;5084570;28;20055;-71
2023/08/30 02:11:48;;;;;;;10.60;7.07;;;;;;;;;;5081996;28;20051;-72
2023/08/30 02:14:20;;;;;;;10.95;6.97;;;;;;;;;;5085679;28;20403;-71
2023/08/30 02:16:52;;;;;;;14.48;7.22;;;;;;;;;;5086309;28;20052;-75
2023/08/30 02:19:24;;;;;;;11.70;7.43;;;;;;;;;;5084165;28;20048;-72
2023/08/30 02:21:54;;;;;;;12.43;8.00;;;;;;;;;;5085642;28;20054;-70
2023/08/30 02:24:24;;;;;;;14.80;7.28;;;;;;;;;;5084196;28;20067;-69
2023/08/30 02:26:57;;;;;;;15.90;8.90;;;;;;;;;;5084356;28;20129;-73
2023/08/30 02:29:29;;;;;;;16.70;8.85;;;;;;;;;;5084702;28;20165;-77
2023/08/30 02:31:59;;;;;;;19.83;10.38;;;;;;;;;;5084966;28;20537;-70
2023/08/30 02:34:37;;;;;;;17.42;10.65;;;;;;;;;;5085498;28;20509;-71
2023/08/30 02:37:07;;;;;;;15.07;9.82;;;;;;;;;;5085368;28;20501;-71
2023/08/30 02:39:44;;;;;;;15.23;9.45;;;;;;;;;;5085492;28;20047;-72
2023/08/30 02:42:15;;;;;;;12.23;9.05;;;;;;;;;;5085500;28;20055;-71
2023/08/30 02:44:45;;;;;;;15.25;8.02;;;;;;;;;;5085564;28;20422;-71
2023/08/30 02:47:16;;;;;;;16.55;8.25;;;;;;;;;;5083801;28;20044;-71
2023/08/30 02:49:47;;;;;;;11.48;6.93;;;;;;;;;;5085426;28;20052;-72
2023/08/30 02:52:19;;;;;;;12.52;7.30;;;;;;;;;;5083525;28;20055;-70
2023/08/30 02:54:49;;;;;;;13.73;7.50;;;;;;;;;;5083238;28;20427;-71
2023/08/30 02:57:20;;;;;;;13.52;7.95;;;;;;;;;;5085090;28;20499;-72
2023/08/30 02:59:51;;;;;;;12.48;6.95;;;;;;;;;;5083219;28;20527;-71
2023/08/30 03:02:22;;;;;;;15.95;6.15;;;;;;;;;;5083912;28;20075;-72
2023/08/30 03:04:52;;;;;;;14.18;6.95;;;;;;;;;;5084726;28;20061;-72
2023/08/30 03:07:23;;;;;;;10.18;6.68;;;;;;;;;;5083791;28;20082;-72
2023/08/30 03:09:55;;;;;;;8.50;5.80;;;;;;;;;;5083471;28;20078;-71
2023/08/30 03:12:26;;;;;;;11.85;5.97;;;;;;;;;;5087405;28;20050;-72
2023/08/30 03:14:57;;;;;;;9.57;5.90;;;;;;;;;;5087434;28;20048;-72
2023/08/30 03:17:27;;;;;;;12.35;5.72;;;;;;;;;;5086248;28;20051;-70
2023/08/30 03:20:03;;;;;;;9.13;4.97;;;;;;;;;;5086754;28;20048;-71
2023/08/30 03:22:35;;;;;;;11.93;6.72;;;;;;;;;;5085438;28;20052;-77
2023/08/30 03:25:06;;;;;;;10.00;6.40;;;;;;;;;;5085479;28;20048;-71
2023/08/30 03:27:40;;;;;;;13.65;6.78;;;;;;;;;;5088050;28;20487;-72
2023/08/30 03:30:11;;;;;;;15.40;5.30;;;;;;;;;;5085683;28;20412;-71
2023/08/30 03:32:43;;;;;;;13.75;6.40;;;;;;;;;;5086071;28;20052;-71
2023/08/30 03:35:17;;;;;;;12.15;6.65;;;;;;;;;;5085628;28;20051;-72
2023/08/30 03:37:47;;;;;;;9.02;5.78;;;;;;;;;;5085337;28;20059;-70
2023/08/30 03:40:18;;;;;;;11.57;6.22;;;;;;;;;;5086938;28;20427;-70
2023/08/30 03:42:49;;;;;;;11.20;5.50;;;;;;;;;;5085889;28;20427;-71
2023/08/30 03:45:20;;;;;;;8.32;5.60;;;;;;;;;;5085554;28;20056;-71
2023/08/30 03:47:50;;;;;;;12.35;6.20;;;;;;;;;;5086543;28;20051;-72
2023/08/30 03:50:21;;;;;;;11.18;5.28;;;;;;;;;;5087673;28;21300;-70
2023/08/30 03:52:52;;;;;;;13.60;5.78;;;;;;;;;;5085341;28;20052;-71
2023/08/30 03:55:22;;;;;;;11.77;6.43;;;;;;;;;;5087629;28;20048;-70
2023/08/30 03:57:53;;;;;;;13.98;6.22;;;;;;;;;;5086993;28;20052;-70
2023/08/30 04:00:24;;;;;;;11.43;6.60;;;;;;;;;;5086310;28;20075;-71
2023/08/30 04:02:56;;;;;;;9.88;5.90;;;;;;;;;;5086957;28;20398;-71
2023/08/30 04:05:26;;;;;;;11.85;7.07;;;;;;;;;;5084670;28;20048;-71
2023/08/30 04:07:57;;;;;;;11.38;6.00;;;;;;;;;;5084975;28;20048;-71
2023/08/30 04:10:26;;;;;;;;;;;;;;;;;;5085399;28;20418;-70
2023/08/30 04:12:57;;;;;;;9.25;5.93;;;;;;;;;;5086098;28;19920;-70
2023/08/30 04:15:27;;;;;;;10.57;6.85;;;;;;;;;;5086682;28;20044;-71
2023/08/30 04:17:58;;;;;;;9.73;6.28;;;;;;;;;;5087185;28;20040;-74
2023/08/30 04:20:28;;;;;;;12.90;7.13;;;;;;;;;;5086708;28;20040;-71
2023/08/30 04:23:02;;;;;;;14.27;7.45;;;;;;;;;;5086561;28;20055;-71
2023/08/30 04:25:35;;;;;;;9.82;6.90;;;;;;;;;;5084559;28;20075;-72
2023/08/30 04:28:05;;;;;;;10.77;7.10;;;;;;;;;;5085068;28;20051;-72
2023/08/30 04:30:38;;;;;;;15.52;7.57;;;;;;;;;;5086888;28;20043;-70
2023/08/30 04:33:10;;;;;;;10.93;6.28;;;;;;;;;;5084473;28;20533;-71
2023/08/30 04:35:41;;;;;;;12.05;7.13;;;;;;;;;;5083352;28;20052;-71
2023/08/30 04:38:13;;;;;;;15.13;7.07;;;;;;;;;;5085009;28;20047;-73
2023/08/30 04:40:44;;;;;;;15.23;6.85;;;;;;;;;;5084146;28;20052;-71
2023/08/30 04:43:16;;;;;;;13.73;7.30;;;;;;;;;;5068339;28;20052;-71
2023/08/30 04:45:49;;;;;;;8.88;5.53;;;;;;;;;;5086774;28;20051;-70
2023/08/30 04:48:19;;;;;;;13.65;7.28;;;;;;;;;;5084635;28;20047;-71
2023/08/30 04:50:57;;;;;;;14.75;7.35;;;;;;;;;;5068400;28;20056;-71
2023/08/30 04:53:31;;;;;;;13.80;7.53;;;;;;;;;;5084965;28;20059;-71
2023/08/30 04:56:10;;;;;;;10.18;6.80;;;;;;;;;;5085997;28;20506;-72
2023/08/30 04:58:41;;;;;;;11.23;7.95;;;;;;;;;;5068133;28;20106;-70
2023/08/30 05:01:13;;;;;;;11.73;7.68;;;;;;;;;;5086427;28;20051;-70
2023/08/30 05:03:47;;;;;;;10.55;6.95;;;;;;;;;;5084388;28;20051;-73
2023/08/30 05:06:18;;;;;;;14.45;8.65;;;;;;;;;;5068445;28;20056;-71
2023/08/30 05:08:48;;;;;;;11.98;7.53;;;;;;;;;;5084418;28;20059;-71
2023/08/30 05:11:18;;;;;;;11.05;7.40;;;;;;;;;;5067653;28;20515;-71
2023/08/30 05:13:49;;;;;;;11.40;6.00;;;;;;;;;;5084301;28;20048;-71
2023/08/30 05:16:20;;;;;;;14.90;7.32;;;;;;;;;;5084878;28;20059;-71
2023/08/30 05:18:52;;;;;;;12.90;6.78;;;;;;;;;;5084436;28;20063;-72
2023/08/30 05:21:22;;;;;;;14.77;7.55;;;;;;;;;;5084421;28;20051;-72
2023/08/30 05:23:53;;;;;;;11.55;7.43;;;;;;;;;;5083543;28;20048;-70
2023/08/30 05:26:25;;;;;;;15.35;7.47;;;;;;;;;;5084461;28;20052;-72
2023/08/30 05:28:56;;;;;;;11.43;7.05;;;;;;;;;;5084434;28;20056;-71
2023/08/30 05:31:26;;;;;;;11.13;7.68;;;;;;;;;;5084478;28;20051;-71
2023/08/30 05:34:04;;;;;;;12.73;7.78;;;;;;;;;;5084143;28;20056;-71
2023/08/30 05:36:57;;;;;;;;;;;;;;;;;;5080850;28;20081;-72
2023/08/30 05:39:46;;;;;;;13.40;7.35;;;;;;;;;;5087806;28;19924;-71
2023/08/30 05:42:22;;;;;;;14.77;7.72;;;;;;;;;;5085730;28;20048;-71
2023/08/30 05:44:53;;;;;;;;;;;;;;;;;;5085343;28;20513;-72
2023/08/30 05:47:25;;;;;;;10.07;6.72;;;;;;;;;;5087806;28;20390;-70
2023/08/30 05:49:55;;;;;;;8.25;6.43;;;;;;;;;;5087531;28;20048;-72
2023/08/30 05:52:26;;;;;;;11.27;6.80;;;;;;;;;;5087498;28;20502;-70
2023/08/30 05:54:57;;;;;;;12.00;6.80;;;;;;;;;;5087056;28;20486;-70
2023/08/30 05:57:33;;;;;;;10.65;7.63;;;;;;;;;;5087698;28;20475;-71
2023/08/30 06:00:05;;;;;;;11.00;7.18;;;;;;;;;;5087917;28;20051;-73
2023/08/30 06:02:41;;;;;;;10.82;7.47;;;;;;;;;;5091417;28;20052;-72
2023/08/30 06:05:13;;;;;;;11.27;7.05;;;;;;;;;;5089514;28;20048;-72
2023/08/30 06:07:44;;;;;;;11.85;7.28;;;;;;;;;;5088762;28;20036;-72
2023/08/30 06:10:14;;;;;;;10.77;7.13;;;;;;;;;;5088996;28;20048;-73
2023/08/30 06:12:44;;;;;;;17.95;7.20;;;;;;;;;;5089174;28;20043;-73
2023/08/30 06:15:15;;;;;;;10.77;6.88;;;;;;;;;;5089467;28;20402;-73
2023/08/30 06:17:47;;;;;;;12.40;7.60;;;;;;;;;;5070952;28;20044;-73
2023/08/30 06:20:17;;;;;;;12.40;7.45;;;;;;;;;;5088863;28;20055;-73
2023/08/30 06:22:47;;;;;;;11.93;7.18;;;;;;;;;;5087423;28;20056;-72
2023/08/30 06:25:17;;;;;;;;;;;;;;;;;;5089489;28;20526;-72
2023/08/30 06:27:58;;;;;;;12.35;6.38;;;;;;;;;;5088639;28;19957;-72
2023/08/30 06:30:30;;;;;;;13.80;8.32;;;;;;;;;;5088247;28;20585;-70
2023/08/30 06:33:01;;;;;;;11.20;8.18;;;;;;;;;;5088447;28;20055;-72
2023/08/30 06:35:32;;;;;;;15.45;8.57;;;;;;;;;;5086021;28;20068;-72
2023/08/30 06:38:03;;;;;;;14.00;8.15;;;;;;;;;;5088047;28;20056;-71
2023/08/30 06:40:34;;;;;;;11.43;8.07;;;;;;;;;;5088543;28;20044;-71
2023/08/30 06:43:04;;;;;;;17.35;8.50;;;;;;;;;;5088557;28;20048;-72
2023/08/30 06:45:34;;;;;;;13.00;8.55;;;;;;;;;;5088525;28;20040;-72
2023/08/30 06:48:05;;;;;;;;;;;;;;;;;;5088652;28;20051;-72
2023/08/30 06:50:37;;;;;;;15.38;7.18;;;;;;;;;;5088203;28;19924;-71
2023/08/30 06:53:07;;;;;;;14.43;8.00;;;;;;;;;;5088603;28;20044;-72
2023/08/30 06:55:37;;;;;;;15.80;8.00;;;;;;;;;;5086629;28;20419;-72
2023/08/30 06:58:08;;;;;;;12.77;8.63;;;;;;;;;;5087529;28;20059;-70
2023/08/30 07:00:39;;;;;;;12.55;8.13;;;;;;;;;;5088560;28;20047;-71
2023/08/30 07:03:09;;;;;;;12.90;8.15;;;;;;;;;;5087848;28;20044;-71
2023/08/30 07:05:49;;;;;;;13.38;8.15;;;;;;;;;;5087905;28;20422;-73
2023/08/30 07:08:21;;;;;;;13.88;7.95;;;;;;;;;;5087976;28;20044;-72
2023/08/30 07:10:52;;;;;;;12.73;8.43;;;;;;;;;;5087706;28;20048;-73
2023/08/30 07:13:23;;;;;;;16.95;8.30;;;;;;;;;;5086277;28;20052;-73
2023/08/30 07:15:53;;;;;;;;;;;;;;;;;;5088187;28;20490;-73
2023/08/30 07:18:24;;;;;;;12.57;8.20;;;;;;;;;;5087223;28;19931;-71
2023/08/30 07:21:03;;;;;;;12.05;7.10;;;;;;;;;;5088084;28;20406;-71
2023/08/30 07:23:33;;;;;;;16.33;7.82;;;;;;;;;;5087437;28;20059;-71
2023/08/30 07:26:03;;;;;;;10.40;7.68;;;;;;;;;;5087633;28;20043;-72
2023/08/30 07:28:35;;;;;;;14.82;8.68;;;;;;;;;;5087450;28;20044;-70
2023/08/30 07:31:06;;;;;;;11.32;8.45;;;;;;;;;;5086301;28;20059;-72
2023/08/30 07:33:37;;;;;;;13.10;7.97;;;;;;;;;;5087654;28;20048;-70
2023/08/30 07:36:08;;;;;;;12.48;8.45;;;;;;;;;;5087023;28;20067;-70
2023/08/30 07:38:39;;;;;;;11.70;8.93;;;;;;;;;;5087599;28;20078;-71
2023/08/30 07:41:10;;;;;;;15.95;8.85;;;;;;;;;;5087385;28;20071;-71
2023/08/30 07:43:41;;;;;;;15.35;8.68;;;;;;;;;;5087293;28;20052;-72
2023/08/30 07:46:12;;;;;;;12.13;8.60;;;;;;;;;;5087208;28;20056;-71
2023/08/30 07:48:42;;;;;;;12.68;7.20;;;;;;;;;;5087079;28;20509;-71
2023/08/30 07:51:12;;;;;;;11.73;8.50;;;;;;;;;;5087382;28;20502;-72
2023/08/30 07:53:43;;;;;;;18.13;8.25;;;;;;;;;;5086820;28;20508;-71
2023/08/30 07:56:14;;;;;;;17.90;9.18;;;;;;;;;;5068567;28;20510;-72
2023/08/30 07:58:43;;;;;;;;;;;;;;;;;;5087510;28;20471;-72
2023/08/30 08:01:13;;;;;;;13.82;8.63;;;;;;;;;;5068175;28;19924;-70
2023/08/30 08:03:44;;;;;;;14.38;9.70;;;;;;;;;;5086888;28;20066;-72
2023/08/30 08:06:34;;;;;;;14.02;9.23;;;;;;;;;;5085543;28;20063;-72
2023/08/30 08:09:07;;;;;;;13.18;8.25;;;;;;;;;;5086711;28;20378;-70
2023/08/30 08:11:39;;;;;;;18.30;9.95;;;;;;;;;;5087685;28;20048;-71
2023/08/30 08:14:11;;;;;;;16.27;7.95;;;;;;;;;;5086391;28;20044;-72
2023/08/30 08:16:42;;;;;;;14.73;9.15;;;;;;;;;;5086410;28;20047;-73
2023/08/30 08:19:13;;;;;;;11.57;8.48;;;;;;;;;;5086789;28;20048;-72
2023/08/30 08:21:43;;;;;;;13.77;8.85;;;;;;;;;;5086646;28;20049;-71
2023/08/30 08:24:14;;;;;;;15.40;9.65;;;;;;;;;;5086395;28;20503;-70
2023/08/30 08:26:45;;;;;;;17.23;10.32;;;;;;;;;;5086973;28;20513;-71
2023/08/30 08:29:17;;;;;;;14.75;9.75;;;;;;;;;;5086839;28;20052;-73
2023/08/30 08:31:48;;;;;;;14.43;8.50;;;;;;;;;;5086292;28;20572;-71
2023/08/30 08:34:19;;;;;;;11.98;7.72;;;;;;;;;;5085928;28;20051;-73
2023/08/30 08:36:52;;;;;;;11.63;8.43;;;;;;;;;;5086619;28;20048;-72
2023/08/30 08:39:23;;;;;;;13.77;9.43;;;;;;;;;;5086672;28;20044;-72
2023/08/30 08:41:54;;;;;;;14.70;8.80;;;;;;;;;;5086655;28;20519;-73
2023/08/30 08:44:28;;;;;;;16.38;9.27;;;;;;;;;;5086457;28;20048;-74
2023/08/30 08:47:01;;;;;;;15.77;8.95;;;;;;;;;;5086351;28;20055;-71
2023/08/30 08:49:31;;;;;;;16.80;9.18;;;;;;;;;;5086191;28;20040;-72
2023/08/30 08:52:03;;;;;;;15.30;10.00;;;;;;;;;;5085997;28;20043;-73
2023/08/30 08:54:52;;;;;;;28.23;10.77;;;;;;;;;;5085680;28;20541;-72
2023/08/30 08:57:23;;;;;;;17.52;10.10;;;;;;;;;;5086789;28;20048;-73
2023/08/30 08:59:57;;;;;;;15.02;8.40;;;;;;;;;;5084794;28;20067;-72
2023/08/30 09:02:29;;;;;;;17.20;10.02;;;;;;;;;;5085843;28;20048;-72
2023/08/30 09:05:00;;;;;;;14.32;9.45;;;;;;;;;;5086774;28;20127;-73
2023/08/30 09:07:32;;;;;;;12.70;9.38;;;;;;;;;;5086356;28;20043;-71
2023/08/30 09:10:03;;;;;;;16.70;9.98;;;;;;;;;;5087062;28;20044;-72
2023/08/30 09:12:35;;;;;;;20.77;10.07;;;;;;;;;;5086830;28;20059;-75
2023/08/30 09:15:06;;;;;;;11.70;7.47;;;;;;;;;;5086256;28;20499;-78
2023/08/30 09:17:38;;;;;;;13.07;8.63;;;;;;;;;;5086437;28;20044;-75
2023/08/30 09:20:13;;;;;;;13.00;8.75;;;;;;;;;;5086453;28;20514;-79
2023/08/30 09:22:44;;;;;;;15.25;9.35;;;;;;;;;;5087334;28;20052;-71
2023/08/30 09:25:25;;;;;;;12.57;8.93;;;;;;;;;;5091297;28;20044;-73
2023/08/30 09:27:59;;;;;;;13.65;8.40;;;;;;;;;;5095105;28;20055;-70
2023/08/30 09:30:32;;;;;;;12.65;8.55;;;;;;;;;;5099250;28;20506;-69
2023/08/30 09:33:03;;;;;;;14.05;8.73;;;;;;;;;;5097420;28;20055;-72
2023/08/30 09:35:44;;;;;;;18.50;9.55;;;;;;;;;;5094251;28;20056;-71
2023/08/30 09:38:18;;;;;;;13.23;8.60;;;;;;;;;;5091454;28;20059;-71
2023/08/30 09:40:49;;;;;;;18.60;9.43;;;;;;;;;;5090692;28;20055;-72
2023/08/30 09:43:24;;;;;;;16.75;8.60;;;;;;;;;;5088801;28;20047;-71
2023/08/30 09:45:54;;;;;;;18.95;9.50;;;;;;;;;;5089881;28;20502;-73
2023/08/30 09:48:29;;;;;;;13.52;8.38;;;;;;;;;;5090492;28;20048;-70
2023/08/30 09:51:04;;;;;;;22.35;8.27;;;;;;;;;;5089176;28;20075;-70
2023/08/30 09:53:43;;;;;;;20.75;8.73;;;;;;;;;;5089381;28;20048;-71
2023/08/30 09:56:36;;;;;;;15.93;8.38;;;;;;;;;;5089097;28;20052;-75
2023/08/30 09:59:07;;;;;;;19.42;7.40;;;;;;;;;;5089814;28;20055;-75
2023/08/30 10:01:38;;;;;;;17.98;8.80;;;;;;;;;;5088252;28;20449;-75
2023/08/30 10:04:10;;;;;;;34.40;21.50;;;;;;;;;;5087758;28;20056;-72
2023/08/30 10:06:41;;;;;;;30.88;11.32;;;;;;;;;;5089448;28;20483;-72
2023/08/30 10:09:14;;;;;;;19.63;10.88;;;;;;;;;;5088852;28;20052;-74
2023/08/30 10:11:48;;;;;;;19.02;8.50;;;;;;;;;;5087556;28;20068;-72
2023/08/30 10:14:18;;;;;;;19.60;8.32;;;;;;;;;;5087910;28;20078;-74
2023/08/30 10:16:51;;;;;;;21.75;8.00;;;;;;;;;;5089077;28;20052;-77
2023/08/30 10:19:27;;;;;;;20.67;9.30;;;;;;;;;;5087140;28;20052;-71
2023/08/30 10:22:15;;;;;;;17.55;9.73;;;;;;;;;;5088686;28;20055;-73
2023/08/30 10:24:48;;;;;;;12.57;8.65;;;;;;;;;;5088562;28;20407;-72
2023/08/30 10:27:43;;;;;;;22.70;9.15;;;;;;;;;;5088569;28;20502;-71
2023/08/30 10:30:14;;;;;;;20.77;9.63;;;;;;;;;;5087024;28;20055;-73
2023/08/30 10:32:46;;;;;;;17.10;8.88;;;;;;;;;;5087918;28;20048;-73
2023/08/30 10:35:20;;;;;;;14.95;7.97;;;;;;;;;;5089199;28;21135;-72
2023/08/30 10:37:59;;;;;;;15.35;9.23;;;;;;;;;;5088669;28;20071;-76
2023/08/30 10:40:29;;;;;;;12.90;8.93;;;;;;;;;;5088580;28;20474;-73
2023/08/30 10:43:03;;;;;;;16.83;9.77;;;;;;;;;;5088700;28;20044;-72
2023/08/30 10:45:34;;;;;;;16.40;9.38;;;;;;;;;;5086511;28;20052;-72
2023/08/30 10:48:05;;;;;;;14.73;8.07;;;;;;;;;;5087967;28;20118;-73
2023/08/30 10:50:36;;;;;;;16.30;9.68;;;;;;;;;;5088775;28;20048;-72
2023/08/30 10:53:14;;;;;;;19.88;9.60;;;;;;;;;;5088255;28;20043;-76
2023/08/30 10:56:04;;;;;;;18.63;9.95;;;;;;;;;;5088405;28;20570;-76
2023/08/30 10:58:44;;;;;;;12.63;8.98;;;;;;;;;;5089029;28;20043;-75
2023/08/30 11:01:15;;;;;;;24.65;10.95;;;;;;;;;;5088594;28;20044;-74
2023/08/30 11:03:46;;;;;;;37.05;11.73;;;;;;;;;;5088463;28;20403;-73
2023/08/30 11:06:21;;;;;;;15.13;10.00;;;;;;;;;;5089152;28;20517;-73
2023/08/30 11:08:52;;;;;;;16.00;8.95;;;;;;;;;;5088035;28;20051;-72
2023/08/30 11:11:25;;;;;;;18.15;8.98;;;;;;;;;;5088112;28;20059;-73
2023/08/30 11:14:08;;;;;;;18.73;8.50;;;;;;;;;;5087910;28;20491;-72
2023/08/30 11:16:38;;;;;;;17.15;9.73;;;;;;;;;;5088339;28;20521;-72
2023/08/30 11:19:12;;;;;;;16.05;9.18;;;;;;;;;;5087942;28;20055;-72
2023/08/30 11:21:46;;;;;;;22.50;10.18;;;;;;;;;;5088200;28;20048;-72
2023/08/30 11:24:17;;;;;;;19.23;10.05;;;;;;;;;;5086056;28;20138;-72
2023/08/30 11:26:53;;;;;;;16.23;9.48;;;;;;;;;;5087957;28;20431;-77
2023/08/30 11:29:28;;;;;;;12.07;7.15;;;;;;;;;;5088131;28;20051;-73
2023/08/30 11:31:59;;;;;;;15.65;8.00;;;;;;;;;;5088033;28;20051;-74
2023/08/30 11:34:29;;;;;;;18.23;7.93;;;;;;;;;;5087904;28;20066;-73
2023/08/30 11:37:00;;;;;;;11.63;6.55;;;;;;;;;;5087627;28;20396;-78
2023/08/30 11:39:30;;;;;;;10.10;7.22;;;;;;;;;;5087496;28;20048;-73
2023/08/30 11:42:06;;;;;;;12.40;5.55;;;;;;;;;;5087441;28;20055;-74
2023/08/30 11:44:46;;;;;;;12.00;7.05;;;;;;;;;;5086978;28;20048;-74
2023/08/30 11:47:34;;;;;;;8.82;5.82;;;;;;;;;;5087478;28;20083;-74
2023/08/30 11:50:09;;;;;;;9.07;4.70;;;;;;;;;;5087313;28;20071;-75
2023/08/30 11:52:40;;;;;;;7.95;5.00;;;;;;;;;;5087452;28;20039;-73
2023/08/30 11:55:12;;;;;;;8.35;5.03;;;;;;;;;;5087660;28;20044;-74
2023/08/30 11:57:45;;;;;;;8.77;5.55;;;;;;;;;;5087580;28;20074;-73
2023/08/30 12:00:16;;;;;;;11.48;5.13;;;;;;;;;;5086995;28;20503;-74
2023/08/30 12:02:49;;;;;;;7.75;5.15;;;;;;;;;;5087797;28;20439;-74
2023/08/30 12:05:20;;;;;;;5.72;4.85;;;;;;;;;;5087008;28;20040;-73
2023/08/30 12:07:49;;;;;;;10.90;4.85;;;;;;;;;;5087378;28;20040;-74
2023/08/30 12:10:20;;;;;;;11.48;5.10;;;;;;;;;;5086694;28;20494;-74
2023/08/30 12:12:50;;;;;;;16.55;5.55;;;;;;;;;;5086898;28;20056;-75
2023/08/30 12:15:26;;;;;;;9.27;5.53;;;;;;;;;;5086651;28;20503;-75
2023/08/30 12:18:05;;;;;;;14.75;5.70;;;;;;;;;;5086941;28;20506;-73
2023/08/30 12:20:36;;;;;;;8.70;4.80;;;;;;;;;;5086927;28;20510;-74
2023/08/30 12:23:06;;;;;;;12.82;4.90;;;;;;;;;;5086494;28;20056;-74
2023/08/30 12:25:37;;;;;;;6.05;4.88;;;;;;;;;;5085360;28;20048;-73
2023/08/30 12:28:07;;;;;;;14.82;9.77;;;;;;;;;;5087033;28;20507;-72
2023/08/30 12:30:37;;;;;;;7.68;4.70;;;;;;;;;;5086532;28;20051;-73
2023/08/30 12:33:07;;;;;;;9.05;3.80;;;;;;;;;;5087146;28;20040;-73
2023/08/30 12:35:39;;;;;;;5.88;3.83;;;;;;;;;;5084646;28;20059;-75
2023/08/30 12:38:20;;;;;;;9.27;6.53;;;;;;;;;;5086426;28;20565;-72
2023/08/30 12:40:52;;;;;;;7.68;4.03;;;;;;;;;;5086537;28;20495;-72
2023/08/30 12:43:23;;;;;;;7.60;4.38;;;;;;;;;;5084519;28;20422;-73
2023/08/30 12:45:55;;;;;;;5.57;4.07;;;;;;;;;;5086834;28;20040;-72
2023/08/30 12:48:26;;;;;;;8.30;5.18;;;;;;;;;;5086769;28;20048;-72
2023/08/30 12:50:56;;;;;;;8.23;5.07;;;;;;;;;;5086596;28;20532;-71
2023/08/30 12:53:26;;;;;;;7.78;3.92;;;;;;;;;;5086009;28;20052;-73
2023/08/30 12:55:57;;;;;;;6.97;4.80;;;;;;;;;;5085155;28;20067;-72
2023/08/30 12:58:34;;;;;;;14.20;5.65;;;;;;;;;;5085884;28;20044;-74
2023/08/30 13:01:10;;;;;;;8.32;4.32;;;;;;;;;;5085785;28;20055;-74
2023/08/30 13:03:40;;;;;;;5.82;3.88;;;;;;;;;;5086425;28;20056;-75
2023/08/30 13:06:11;;;;;;;11.70;10.43;;;;;;;;;;5085333;28;20044;-73
2023/08/30 13:08:43;;;;;;;8.75;4.10;;;;;;;;;;5086374;28;20044;-72
2023/08/30 13:11:13;;;;;;;6.13;4.07;;;;;;;;;;5086020;28;20044;-73
2023/08/30 13:13:43;;;;;;;7.53;3.83;;;;;;;;;;5085856;28;20048;-72
2023/08/30 13:16:14;;;;;;;17.58;4.18;;;;;;;;;;5086129;28;20048;-73
2023/08/30 13:18:45;;;;;;;8.88;4.15;;;;;;;;;;5084664;28;20040;-72
2023/08/30 13:21:17;;;;;;;5.97;4.22;;;;;;;;;;5085553;28;20053;-75
2023/08/30 13:23:59;;;;;;;8.38;3.88;;;;;;;;;;5084732;28;20408;-74
2023/08/30 13:26:28;;;;;;;7.13;3.72;;;;;;;;;;5083793;28;21050;-78
2023/08/30 13:29:02;;;;;;;6.80;3.55;;;;;;;;;;5085773;28;20051;-75
2023/08/30 13:31:33;;;;;;;5.53;3.35;;;;;;;;;;5084740;28;20048;-73
2023/08/30 13:34:03;;;;;;;4.25;2.60;;;;;;;;;;5086310;28;20040;-73
2023/08/30 13:36:33;;;;;;;7.10;3.75;;;;;;;;;;5085272;28;20044;-77
2023/08/30 13:39:04;;;;;;;10.23;4.00;;;;;;;;;;5085636;28;20044;-74
2023/08/30 13:41:35;;;;;;;4.40;3.45;;;;;;;;;;5085696;28;20052;-73
2023/08/30 13:44:06;;;;;;;6.18;3.50;;;;;;;;;;5085857;28;20048;-74
2023/08/30 13:46:36;;;;;;;7.07;3.20;;;;;;;;;;5085643;28;20058;-74
2023/08/30 13:49:07;;;;;;;6.70;3.20;;;;;;;;;;5085755;28;20052;-73
2023/08/30 13:51:38;;;;;;;4.63;3.20;;;;;;;;;;5085812;28;20052;-74
2023/08/30 13:54:09;;;;;;;10.25;3.05;;;;;;;;;;5084038;28;20107;-74
2023/08/30 13:56:43;;;;;;;7.72;3.10;;;;;;;;;;5085478;28;20049;-73
2023/08/30 13:59:14;;;;;;;8.18;3.10;;;;;;;;;;5086129;28;20044;-75
2023/08/30 14:01:45;;;;;;;7.93;3.58;;;;;;;;;;5085880;28;20055;-73
2023/08/30 14:04:16;;;;;;;6.25;3.40;;;;;;;;;;5085148;28;20052;-75
2023/08/30 14:06:48;;;;;;;18.63;4.00;;;;;;;;;;5086032;28;20048;-76
2023/08/30 14:09:18;;;;;;;5.43;3.58;;;;;;;;;;5089011;28;20054;-74
2023/08/30 14:11:52;;;;;;;6.95;3.45;;;;;;;;;;5089038;28;20486;-74
2023/08/30 14:14:23;;;;;;;6.45;3.88;;;;;;;;;;5089598;28;20044;-73
2023/08/30 14:16:54;;;;;;;7.97;3.05;;;;;;;;;;5088928;28;20040;-72
2023/08/30 14:19:24;;;;;;;6.70;3.42;;;;;;;;;;5089135;28;20044;-74
2023/08/30 14:21:58;;;;;;;7.82;6.03;;;;;;;;;;5088858;28;20422;-73
2023/08/30 14:24:29;;;;;;;5.18;3.25;;;;;;;;;;5089821;28;20507;-74
2023/08/30 14:27:07;;;;;;;13.30;3.80;;;;;;;;;;5089084;28;20055;-75
2023/08/30 14:29:37;;;;;;;5.82;3.13;;;;;;;;;;5088812;28;20059;-75
2023/08/30 14:32:07;;;;;;;6.15;3.50;;;;;;;;;;5087541;28;20605;-75
2023/08/30 14:34:39;;;;;;;6.78;3.10;;;;;;;;;;5088846;28;20048;-75
2023/08/30 14:37:09;;;;;;;5.07;3.45;;;;;;;;;;5088450;28;20076;-72
2023/08/30 14:39:39;;;;;;;11.63;3.47;;;;;;;;;;5087133;28;20752;-73
2023/08/30 14:42:10;;;;;;;4.78;2.92;;;;;;;;;;5087040;28;20424;-75
2023/08/30 14:44:40;;;;;;;6.25;3.00;;;;;;;;;;5087282;28;20048;-73
2023/08/30 14:47:11;;;;;;;8.07;2.78;;;;;;;;;;5088547;28;20040;-74
2023/08/30 14:49:42;;;;;;;4.38;2.80;;;;;;;;;;5088692;28;20055;-73
2023/08/30 14:52:14;;;;;;;5.85;2.60;;;;;;;;;;5086075;28;20507;-75
2023/08/30 14:54:45;;;;;;;4.97;2.33;;;;;;;;;;5087899;28;20054;-74
2023/08/30 14:57:15;;;;;;;4.88;2.30;;;;;;;;;;5087386;28;20055;-74
2023/08/30 14:59:47;;;;;;;7.80;1.88;;;;;;;;;;5089136;28;20384;-73
2023/08/30 15:02:18;;;;;;;5.40;1.60;;;;;;;;;;5088133;28;20048;-75
2023/08/30 15:04:48;;;;;;;6.25;2.60;;;;;;;;;;5086737;28;20052;-73
2023/08/30 15:07:23;;;;;;;4.53;2.60;;;;;;;;;;5087972;28;20075;-74